createdAt,value
2022-10-03T00:01:32.172Z,100.00
2022-10-03T00:04:09.782Z,100.00
2022-10-03T00:06:45.449Z,100.00
2022-10-03T00:09:41.329Z,100.00
2022-10-03T00:12:14.082Z,100.00
2022-10-03T00:14:49.631Z,100.00
2022-10-03T00:17:25.767Z,100.00
2022-10-03T00:19:55.599Z,100.00
2022-10-03T00:22:44.690Z,100.00
2022-10-03T00:25:26.499Z,100.00
2022-10-03T00:28:14.951Z,100.00
2022-10-03T00:31:17.147Z,100.00
2022-10-03T00:34:09.590Z,100.00
2022-10-03T00:36:47.478Z,100.00
2022-10-03T00:39:23.168Z,100.00
2022-10-03T00:42:21.076Z,100.00
2022-10-03T00:45:06.391Z,100.00
2022-10-03T00:47:33.083Z,100.00
2022-10-03T00:50:18.551Z,100.00
2022-10-03T00:53:04.197Z,100.00
2022-10-03T00:55:40.337Z,100.00
2022-10-03T00:58:34.974Z,100.00
2022-10-03T01:01:21.221Z,100.00
2022-10-03T01:04:11.064Z,100.00
2022-10-03T01:06:47.678Z,100.00
2022-10-03T01:09:53.498Z,100.00
2022-10-03T01:12:29.349Z,100.00
2022-10-03T01:15:07.291Z,100.00
2022-10-03T01:17:56.714Z,100.00
2022-10-03T01:20:45.802Z,100.00
2022-10-03T01:23:29.674Z,100.00
2022-10-03T01:26:10.272Z,100.00
2022-10-03T01:29:10.382Z,100.00
2022-10-03T01:31:48.164Z,100.00
2022-10-03T01:34:21.097Z,100.00
2022-10-03T01:36:54.497Z,100.00
2022-10-03T01:39:27.949Z,100.00
2022-10-03T01:41:59.241Z,100.00
2022-10-03T01:44:44.645Z,100.00
2022-10-03T01:47:31.842Z,100.00
2022-10-03T01:50:09.171Z,100.00
2022-10-03T01:52:48.296Z,100.00
2022-10-03T01:55:38.596Z,100.00
2022-10-03T01:58:17.117Z,100.00
2022-10-03T02:01:02.055Z,100.00
2022-10-03T02:03:37.013Z,100.00
2022-10-03T02:06:35.363Z,100.00
2022-10-03T02:09:19.833Z,100.00
2022-10-03T02:11:50.305Z,100.00
2022-10-03T02:14:38.763Z,100.00
2022-10-03T02:17:45.113Z,100.00
2022-10-03T02:20:23.819Z,100.00
2022-10-03T02:22:54.851Z,100.00
2022-10-03T02:25:35.659Z,100.00
2022-10-03T02:28:21.090Z,100.00
2022-10-03T02:31:01.755Z,100.00
2022-10-03T02:33:56.659Z,100.00
2022-10-03T02:36:45.250Z,100.00
2022-10-03T02:39:15.043Z,100.00
2022-10-03T02:41:55.645Z,100.00
2022-10-03T02:44:28.391Z,100.00
2022-10-03T02:47:19.481Z,100.00
2022-10-03T02:50:15.728Z,100.00
2022-10-03T02:52:51.990Z,100.00
2022-10-03T02:55:39.869Z,100.00
2022-10-03T02:58:34.381Z,100.00
2022-10-03T03:01:39.037Z,100.00
2022-10-03T03:04:42.650Z,100.00
2022-10-03T03:07:30.674Z,100.00
2022-10-03T03:10:07.377Z,100.00
2022-10-03T03:13:02.954Z,100.00
2022-10-03T03:15:57.517Z,100.00
2022-10-03T03:18:46.650Z,100.00
2022-10-03T03:21:34.387Z,100.00
2022-10-03T03:24:15.477Z,100.00
2022-10-03T03:26:42.070Z,100.00
2022-10-03T03:29:14.003Z,100.00
2022-10-03T03:32:18.578Z,100.00
2022-10-03T03:35:18.347Z,100.00
2022-10-03T03:37:54.378Z,100.00
2022-10-03T03:40:44.275Z,100.00
2022-10-03T03:43:34.479Z,100.00
2022-10-03T03:46:30.461Z,100.00
2022-10-03T03:49:19.222Z,100.00
2022-10-03T03:52:12.231Z,100.00
2022-10-03T03:54:38.937Z,100.00
2022-10-03T03:57:24.493Z,100.00
2022-10-03T04:00:09.654Z,100.00
2022-10-03T04:02:42.469Z,100.00
2022-10-03T04:05:12.650Z,100.00
2022-10-03T04:08:12.409Z,100.00
2022-10-03T04:10:57.269Z,100.00
2022-10-03T04:13:48.244Z,100.00
2022-10-03T04:16:52.176Z,100.00
2022-10-03T04:19:40.230Z,100.00
2022-10-03T04:22:30.065Z,100.00
2022-10-03T04:25:06.648Z,100.00
2022-10-03T04:28:08.537Z,100.00
2022-10-03T04:31:06.805Z,100.00
2022-10-03T04:33:59.498Z,100.00
2022-10-03T04:36:58.531Z,100.00
2022-10-03T04:39:43.761Z,100.00
2022-10-03T04:42:31.812Z,100.00
2022-10-03T04:45:10.769Z,100.00
2022-10-03T04:47:40.395Z,100.00
2022-10-03T04:50:13.080Z,100.00
2022-10-03T04:52:56.961Z,100.00
2022-10-03T04:55:46.834Z,100.00
2022-10-03T04:58:20.459Z,100.00
2022-10-03T05:01:02.400Z,100.00
2022-10-03T05:04:00.675Z,100.00
2022-10-03T05:06:49.099Z,100.00
2022-10-03T05:09:38.201Z,100.00
2022-10-03T05:12:13.466Z,100.00
2022-10-03T05:14:52.179Z,100.00
2022-10-03T05:17:42.237Z,100.00
2022-10-03T05:20:22.070Z,100.00
2022-10-03T05:22:54.746Z,100.00
2022-10-03T05:25:46.195Z,100.00
2022-10-03T05:28:37.142Z,100.00
2022-10-03T05:31:12.955Z,100.00
2022-10-03T05:34:13.805Z,100.00
2022-10-03T05:37:08.398Z,100.00
2022-10-03T05:39:45.829Z,100.00
2022-10-03T05:42:34.175Z,100.00
2022-10-03T05:45:13.043Z,100.00
2022-10-03T05:47:45.599Z,100.00
2022-10-03T05:50:28.479Z,100.00
2022-10-03T05:53:10.932Z,100.00
2022-10-03T05:55:51.410Z,100.00
2022-10-03T05:58:32.301Z,91.02
2022-10-03T06:01:21.434Z,71.52
2022-10-03T06:04:13.508Z,57.66
2022-10-03T06:07:05.009Z,54.43
2022-10-03T06:10:09.385Z,54.35
2022-10-03T06:12:57.731Z,50.92
2022-10-03T06:15:30.469Z,49.58
2022-10-03T06:18:36.655Z,52.31
2022-10-03T06:21:23.358Z,58.15
2022-10-03T06:24:05.624Z,67.71
2022-10-03T06:26:32.706Z,60.92
2022-10-03T06:29:26.716Z,54.17
2022-10-03T06:32:19.704Z,51.45
2022-10-03T06:35:24.287Z,45.90
2022-10-03T06:38:37.190Z,40.84
2022-10-03T06:41:22.153Z,37.67
2022-10-03T06:43:57.373Z,35.25
2022-10-03T06:47:15.040Z,36.26
2022-10-03T06:49:53.717Z,39.88
2022-10-03T06:52:54.319Z,40.47
2022-10-03T06:55:27.954Z,41.38
2022-10-03T06:58:21.839Z,39.69
2022-10-03T07:01:07.235Z,40.82
2022-10-03T07:03:58.555Z,39.98
2022-10-03T07:06:39.131Z,41.62
2022-10-03T07:09:20.923Z,40.40
2022-10-03T07:12:23.509Z,40.93
2022-10-03T07:15:13.636Z,41.90
2022-10-03T07:18:13.978Z,42.03
2022-10-03T07:20:59.179Z,46.66
2022-10-03T07:23:46.463Z,48.84
2022-10-03T07:26:24.893Z,48.96
2022-10-03T07:29:16.242Z,51.68
2022-10-03T07:31:51.800Z,50.67
2022-10-03T07:34:47.478Z,52.35
2022-10-03T07:37:58.811Z,48.53
2022-10-03T07:40:42.625Z,47.23
2022-10-03T07:43:31.135Z,40.15
2022-10-03T07:46:19.658Z,38.05
2022-10-03T07:49:05.523Z,34.98
2022-10-03T07:51:55.465Z,31.64
2022-10-03T07:55:17.140Z,30.08
2022-10-03T07:57:48.320Z,32.93
2022-10-03T08:00:25.153Z,33.15
2022-10-03T08:03:22.687Z,38.87
2022-10-03T08:06:07.790Z,42.07
2022-10-03T08:08:53.302Z,41.08
2022-10-03T08:11:38.186Z,42.47
2022-10-03T08:14:32.914Z,43.64
2022-10-03T08:17:30.668Z,41.48
2022-10-03T08:20:16.128Z,43.23
2022-10-03T08:22:50.059Z,43.72
2022-10-03T08:25:54.102Z,44.41
2022-10-03T08:28:29.935Z,45.51
2022-10-03T08:31:26.012Z,47.25
2022-10-03T08:34:11.883Z,45.36
2022-10-03T08:37:06.167Z,44.55
2022-10-03T08:39:42.081Z,45.67
2022-10-03T08:42:23.896Z,47.73
2022-10-03T08:45:08.287Z,48.29
2022-10-03T08:48:04.846Z,43.46
2022-10-03T08:50:31.454Z,41.75
2022-10-03T08:53:17.025Z,37.64
2022-10-03T08:56:18.069Z,38.81
2022-10-03T08:59:09.526Z,39.78
2022-10-03T09:01:51.182Z,39.21
2022-10-03T09:04:26.976Z,40.18
2022-10-03T09:07:17.019Z,43.01
2022-10-03T09:10:09.427Z,46.77
2022-10-03T09:13:03.990Z,48.90
2022-10-03T09:16:04.913Z,48.52
2022-10-03T09:18:57.070Z,50.28
2022-10-03T09:21:42.531Z,50.44
2022-10-03T09:24:24.057Z,52.77
2022-10-03T09:27:09.804Z,54.53
2022-10-03T09:29:37.926Z,57.79
2022-10-03T09:32:35.572Z,59.62
2022-10-03T09:35:27.053Z,62.11
2022-10-03T09:38:51.911Z,61.62
2022-10-03T09:41:40.768Z,60.10
2022-10-03T09:44:44.330Z,62.31
2022-10-03T09:47:29.265Z,62.96
2022-10-03T09:49:59.265Z,62.19
2022-10-03T09:53:08.671Z,66.06
2022-10-03T09:55:41.088Z,64.12
2022-10-03T09:58:41.783Z,62.33
2022-10-03T10:01:32.617Z,63.92
2022-10-03T10:04:54.369Z,64.02
2022-10-03T10:08:13.483Z,61.58
2022-10-03T10:11:04.824Z,67.80
2022-10-03T10:14:08.970Z,61.96
2022-10-03T10:16:54.290Z,63.54
2022-10-03T10:19:46.119Z,61.00
2022-10-03T10:22:35.645Z,66.01
2022-10-03T10:25:05.409Z,62.28
2022-10-03T10:28:01.950Z,65.07
2022-10-03T10:30:34.731Z,62.81
2022-10-03T10:33:01.417Z,63.80
2022-10-03T10:35:52.462Z,67.54
2022-10-03T10:38:41.127Z,67.62
2022-10-03T10:41:57.138Z,69.28
2022-10-03T10:44:26.478Z,70.18
2022-10-03T10:47:13.803Z,67.27
2022-10-03T10:50:06.913Z,66.31
2022-10-03T10:53:12.364Z,63.18
2022-10-03T10:55:46.340Z,62.44
2022-10-03T10:58:42.193Z,58.03
2022-10-03T11:01:27.678Z,57.72
2022-10-03T11:04:19.835Z,52.72
2022-10-03T11:06:58.715Z,53.44
2022-10-03T11:09:52.728Z,51.78
2022-10-03T11:12:50.593Z,50.99
2022-10-03T11:15:39.366Z,50.28
2022-10-03T11:18:25.949Z,50.60
2022-10-03T11:21:29.947Z,53.32
2022-10-03T11:24:13.137Z,53.67
2022-10-03T11:27:07.962Z,51.53
2022-10-03T11:29:59.056Z,56.54
2022-10-03T11:33:07.024Z,57.89
2022-10-03T11:36:01.127Z,53.36
2022-10-03T11:38:51.028Z,55.34
2022-10-03T11:41:35.958Z,59.80
2022-10-03T11:44:12.414Z,59.85
2022-10-03T11:47:16.007Z,60.80
2022-10-03T11:50:20.657Z,59.50
2022-10-03T11:52:59.603Z,62.02
2022-10-03T11:55:35.213Z,61.36
2022-10-03T11:58:11.296Z,56.49
2022-10-03T12:00:42.514Z,58.86
2022-10-03T12:03:19.842Z,59.07
2022-10-03T12:05:53.885Z,62.51
2022-10-03T12:08:52.425Z,61.56
2022-10-03T12:11:26.105Z,61.42
2022-10-03T12:14:17.248Z,64.26
2022-10-03T12:17:06.194Z,68.71
2022-10-03T12:19:38.729Z,71.18
2022-10-03T12:22:36.721Z,78.94
2022-10-03T12:25:24.787Z,81.58
2022-10-03T12:28:18.215Z,78.34
2022-10-03T12:30:44.882Z,77.62
2022-10-03T12:33:29.929Z,78.56
2022-10-03T12:36:15.513Z,83.75
2022-10-03T12:39:16.326Z,99.79
2022-10-03T12:41:51.947Z,100.00
2022-10-03T12:44:31.371Z,100.00
2022-10-03T12:47:43.983Z,100.00
2022-10-03T12:50:55.161Z,100.00
2022-10-03T12:53:28.336Z,100.00
2022-10-03T12:56:16.376Z,100.00
2022-10-03T12:59:11.080Z,100.00
2022-10-03T13:02:30.710Z,100.00
2022-10-03T13:04:57.339Z,100.00
2022-10-03T13:07:34.026Z,100.00
2022-10-03T13:10:25.752Z,100.00
2022-10-03T13:13:20.278Z,100.00
2022-10-03T13:16:04.399Z,100.00
2022-10-03T13:18:56.224Z,100.00
2022-10-03T13:21:55.733Z,100.00
2022-10-03T13:24:32.367Z,100.00
2022-10-03T13:27:14.542Z,100.00
2022-10-03T13:29:48.717Z,100.00
2022-10-03T13:32:42.536Z,100.00
2022-10-03T13:35:59.676Z,100.00
2022-10-03T13:38:55.240Z,100.00
2022-10-03T13:41:27.837Z,100.00
2022-10-03T13:44:01.583Z,100.00
2022-10-03T13:46:45.163Z,100.00
2022-10-03T13:49:34.555Z,100.00
2022-10-03T13:52:11.019Z,100.00
2022-10-03T13:54:49.995Z,100.00
2022-10-03T13:57:26.742Z,100.00
2022-10-03T14:00:21.119Z,100.00
2022-10-03T14:03:11.410Z,100.00
2022-10-03T14:06:03.479Z,100.00
2022-10-03T14:08:43.513Z,100.00
2022-10-03T14:11:36.827Z,100.00
2022-10-03T14:14:09.435Z,100.00
2022-10-03T14:16:42.161Z,100.00
2022-10-03T14:19:33.800Z,100.00
2022-10-03T14:22:29.933Z,100.00
2022-10-03T14:25:06.814Z,100.00
2022-10-03T14:27:42.308Z,100.00
2022-10-03T14:30:17.064Z,97.04
2022-10-03T14:32:48.525Z,100.00
2022-10-03T14:35:53.707Z,100.00
2022-10-03T14:38:58.753Z,99.89
2022-10-03T14:41:46.371Z,100.00
2022-10-03T14:44:22.915Z,100.00
2022-10-03T14:47:00.760Z,100.00
2022-10-03T14:52:39.952Z,100.00
2022-10-03T14:55:31.809Z,100.00
2022-10-03T14:58:11.102Z,99.43
2022-10-03T15:00:45.344Z,97.30
2022-10-03T15:03:18.412Z,100.00
2022-10-03T15:06:35.754Z,100.00
2022-10-03T15:09:10.067Z,100.00
2022-10-03T15:11:45.973Z,100.00
2022-10-03T15:14:13.536Z,100.00
2022-10-03T15:16:47.956Z,99.35
2022-10-03T15:19:22.979Z,98.67
2022-10-03T15:21:52.428Z,98.30
2022-10-03T15:24:30.854Z,96.97
2022-10-03T15:27:09.310Z,89.27
2022-10-03T15:29:39.353Z,84.93
2022-10-03T15:32:19.637Z,89.30
2022-10-03T15:34:49.344Z,84.69
2022-10-03T15:37:19.287Z,85.29
2022-10-03T15:39:48.213Z,87.59
2022-10-03T15:42:18.148Z,87.69
2022-10-03T15:45:03.945Z,90.15
2022-10-03T15:47:34.945Z,90.74
2022-10-03T15:50:12.883Z,86.78
2022-10-03T15:52:48.085Z,89.35
2022-10-03T15:55:24.391Z,80.07
2022-10-03T15:57:55.807Z,79.92
2022-10-03T16:00:31.390Z,79.56
2022-10-03T16:03:02.976Z,81.65
2022-10-03T16:05:30.918Z,85.92
2022-10-03T16:08:27.340Z,84.29
2022-10-03T16:11:09.611Z,87.44
2022-10-03T16:13:41.172Z,87.76
2022-10-03T16:16:19.127Z,90.39
2022-10-03T16:18:54.982Z,89.29
2022-10-03T16:21:51.871Z,92.30
2022-10-03T16:24:31.657Z,94.01
2022-10-03T16:27:21.443Z,93.79
2022-10-03T16:30:11.318Z,93.70
2022-10-03T16:32:47.386Z,95.38
2022-10-03T16:35:32.924Z,97.19
2022-10-03T16:38:00.602Z,100.00
2022-10-03T16:40:27.779Z,100.00
2022-10-03T16:42:58.992Z,100.00
2022-10-03T16:45:31.347Z,100.00
2022-10-03T16:48:20.822Z,100.00
2022-10-03T16:50:53.820Z,100.00
2022-10-03T16:53:22.453Z,100.00
2022-10-03T16:55:57.882Z,100.00
2022-10-03T16:58:30.623Z,100.00
2022-10-03T17:01:27.695Z,100.00
2022-10-03T17:03:57.640Z,100.00
2022-10-03T17:06:30.677Z,100.00
2022-10-03T17:09:03.727Z,100.00
2022-10-03T17:11:35.151Z,100.00
2022-10-03T17:14:07.202Z,100.00
2022-10-03T17:17:02.877Z,100.00
2022-10-03T17:19:39.524Z,100.00
2022-10-03T17:22:09.170Z,100.00
2022-10-03T17:24:54.148Z,100.00
2022-10-03T17:27:31.532Z,100.00
2022-10-03T17:30:18.146Z,100.00
2022-10-03T17:32:53.420Z,100.00
2022-10-03T17:35:22.943Z,100.00
2022-10-03T17:38:47.881Z,100.00
2022-10-03T17:41:38.565Z,100.00
2022-10-03T17:44:35.980Z,100.00
2022-10-03T17:47:12.991Z,100.00
2022-10-03T17:49:58.024Z,100.00
2022-10-03T17:52:25.864Z,100.00
2022-10-03T17:54:57.476Z,100.00
2022-10-03T17:57:34.267Z,100.00
2022-10-03T18:00:22.475Z,100.00
2022-10-03T18:03:01.478Z,100.00
2022-10-03T18:05:35.267Z,100.00
2022-10-03T18:08:07.710Z,100.00
2022-10-03T18:10:38.625Z,100.00
2022-10-03T18:13:22.995Z,100.00
2022-10-03T18:16:14.407Z,100.00
2022-10-03T18:19:05.717Z,100.00
2022-10-03T18:21:54.652Z,100.00
2022-10-03T18:24:26.438Z,100.00
2022-10-03T18:27:38.055Z,100.00
2022-10-03T18:30:16.862Z,100.00
2022-10-03T18:32:45.895Z,100.00
2022-10-03T18:35:21.524Z,100.00
2022-10-03T18:38:11.752Z,100.00
2022-10-03T18:41:00.471Z,100.00
2022-10-03T18:43:31.620Z,100.00
2022-10-03T18:46:11.379Z,100.00
2022-10-03T18:49:03.091Z,100.00
2022-10-03T18:51:44.287Z,100.00
2022-10-03T18:54:28.744Z,100.00
2022-10-03T18:57:07.360Z,100.00
2022-10-03T18:59:45.137Z,100.00
2022-10-03T19:02:34.889Z,100.00
2022-10-03T19:05:16.179Z,100.00
2022-10-03T19:08:08.573Z,100.00
2022-10-03T19:10:39.956Z,100.00
2022-10-03T19:13:40.258Z,100.00
2022-10-03T19:16:07.063Z,100.00
2022-10-03T19:18:55.449Z,100.00
2022-10-03T19:21:22.836Z,100.00
2022-10-03T19:24:02.899Z,100.00
2022-10-03T19:26:36.919Z,100.00
2022-10-03T19:29:12.553Z,100.00
2022-10-03T19:31:58.050Z,100.00
2022-10-03T19:34:36.486Z,100.00
2022-10-03T19:37:08.038Z,100.00
2022-10-03T19:39:34.858Z,100.00
2022-10-03T19:42:36.473Z,100.00
2022-10-03T19:45:03.532Z,100.00
2022-10-03T19:47:48.089Z,100.00
2022-10-03T19:50:27.993Z,100.00
2022-10-03T19:52:55.095Z,100.00
2022-10-03T19:55:29.759Z,100.00
2022-10-03T19:58:08.676Z,100.00
2022-10-03T20:00:38.257Z,100.00
2022-10-03T20:03:25.323Z,100.00
2022-10-03T20:06:00.869Z,100.00
2022-10-03T20:08:42.846Z,100.00
2022-10-03T20:11:49.355Z,100.00
2022-10-03T20:14:28.034Z,100.00
2022-10-03T20:17:23.996Z,100.00
2022-10-03T20:19:57.070Z,100.00
2022-10-03T20:22:32.673Z,100.00
2022-10-03T20:25:00.800Z,100.00
2022-10-03T20:28:00.973Z,100.00
2022-10-03T20:30:45.870Z,100.00
2022-10-03T20:33:34.832Z,100.00
2022-10-03T20:36:03.817Z,100.00
2022-10-03T20:38:30.456Z,100.00
2022-10-03T20:41:15.818Z,100.00
2022-10-03T20:43:55.914Z,100.00
2022-10-03T20:46:32.267Z,100.00
2022-10-03T20:49:04.977Z,100.00
2022-10-03T20:51:41.562Z,100.00
2022-10-03T20:54:17.572Z,100.00
2022-10-03T20:57:16.635Z,100.00
2022-10-03T20:59:48.022Z,100.00
2022-10-03T21:02:20.662Z,100.00
2022-10-03T21:05:01.948Z,100.00
2022-10-03T21:07:46.317Z,100.00
2022-10-03T21:10:24.870Z,100.00
2022-10-03T21:12:56.875Z,100.00
2022-10-03T21:15:35.873Z,100.00
2022-10-03T21:18:03.697Z,100.00
2022-10-03T21:20:40.412Z,100.00
2022-10-03T21:23:17.473Z,100.00
2022-10-03T21:25:44.668Z,100.00
2022-10-03T21:28:35.677Z,100.00
2022-10-03T21:31:20.437Z,100.00
2022-10-03T21:34:06.563Z,100.00
2022-10-03T21:36:51.622Z,100.00
2022-10-03T21:39:50.856Z,100.00
2022-10-03T21:42:35.681Z,100.00
2022-10-03T21:45:17.287Z,100.00
2022-10-03T21:47:50.219Z,100.00
2022-10-03T21:50:27.105Z,100.00
2022-10-03T21:53:19.411Z,100.00
2022-10-03T21:56:09.116Z,100.00
2022-10-03T21:58:55.996Z,100.00
2022-10-03T22:01:56.275Z,100.00
2022-10-03T22:04:31.641Z,100.00
2022-10-03T22:07:10.699Z,100.00
2022-10-03T22:09:45.990Z,100.00
2022-10-03T22:12:13.707Z,100.00
2022-10-03T22:15:03.604Z,100.00
2022-10-03T22:17:50.255Z,100.00
2022-10-03T22:20:17.449Z,100.00
2022-10-03T22:22:53.339Z,100.00
2022-10-03T22:25:44.239Z,100.00
2022-10-03T22:28:18.718Z,100.00
2022-10-03T22:31:11.634Z,100.00
2022-10-03T22:33:53.690Z,100.00
2022-10-03T22:36:20.639Z,100.00
2022-10-03T22:38:50.376Z,100.00
2022-10-03T22:41:23.038Z,100.00
2022-10-03T22:43:50.833Z,100.00
2022-10-03T22:46:25.988Z,100.00
2022-10-03T22:49:01.725Z,100.00
2022-10-03T22:51:29.072Z,100.00
2022-10-03T22:54:03.339Z,100.00
2022-10-03T22:56:35.905Z,100.00
2022-10-03T22:59:06.674Z,100.00
2022-10-03T23:01:36.284Z,100.00
2022-10-03T23:04:12.622Z,100.00
2022-10-03T23:06:57.314Z,100.00
2022-10-03T23:10:04.626Z,100.00
2022-10-03T23:12:42.003Z,100.00
2022-10-03T23:15:12.238Z,100.00
2022-10-03T23:17:46.522Z,100.00
2022-10-03T23:20:41.954Z,100.00
2022-10-03T23:23:21.052Z,100.00
2022-10-03T23:26:10.115Z,100.00
2022-10-03T23:29:05.774Z,100.00
2022-10-03T23:32:01.490Z,100.00
2022-10-03T23:34:37.325Z,100.00
2022-10-03T23:37:15.969Z,100.00
2022-10-03T23:40:03.741Z,100.00
2022-10-03T23:42:33.467Z,100.00
2022-10-03T23:45:15.994Z,100.00
2022-10-03T23:47:44.941Z,100.00
2022-10-03T23:50:42.918Z,100.00
2022-10-03T23:53:24.549Z,100.00
2022-10-03T23:55:51.243Z,100.00
2022-10-03T23:58:33.281Z,100.00
